sensor_id;sensor_type;location;lat;lon;timestamp;pressure;altitude;pressure_sealevel;temperature;humidity
45369;BME280;51342;55.250;37.668;2023-08-30T00:00:42;99432.97;;;15.60;81.80
45369;BME280;51342;55.250;37.668;2023-08-30T00:03:13;99429.50;;;15.61;81.68
45369;BME280;51342;55.250;37.668;2023-08-30T00:05:45;99427.75;;;15.60;81.81
45369;BME280;51342;55.250;37.668;2023-08-30T00:08:16;99428.50;;;15.57;81.66
45369;BME280;51342;55.250;37.668;2023-08-30T00:10:49;99433.75;;;15.59;81.82
45369;BME280;51342;55.250;37.668;2023-08-30T00:13:20;99428.56;;;15.59;81.79
45369;BME280;51342;55.250;37.668;2023-08-30T00:15:52;99432.88;;;15.58;81.80
45369;BME280;51342;55.250;37.668;2023-08-30T00:18:24;99435.50;;;15.58;81.63
45369;BME280;51342;55.250;37.668;2023-08-30T00:20:55;99439.81;;;15.58;81.35
45369;BME280;51342;55.250;37.668;2023-08-30T00:23:28;99438.06;;;15.57;81.67
45369;BME280;51342;55.250;37.668;2023-08-30T00:25:59;99438.06;;;15.57;81.23
45369;BME280;51342;55.250;37.668;2023-08-30T00:28:30;99442.38;;;15.56;81.30
45369;BME280;51342;55.250;37.668;2023-08-30T00:31:02;99450.16;;;15.55;81.55
45369;BME280;51342;55.250;37.668;2023-08-30T00:33:33;99444.00;;;15.53;81.34
45369;BME280;51342;55.250;37.668;2023-08-30T00:36:05;99432.72;;;15.54;81.28
45369;BME280;51342;55.250;37.668;2023-08-30T00:38:37;99444.88;;;15.53;81.60
45369;BME280;51342;55.250;37.668;2023-08-30T00:41:08;99437.94;;;15.54;81.64
45369;BME280;51342;55.250;37.668;2023-08-30T00:43:39;99438.84;;;15.54;81.58
45369;BME280;51342;55.250;37.668;2023-08-30T00:46:11;99436.16;;;15.53;81.66
45369;BME280;51342;55.250;37.668;2023-08-30T00:48:44;99446.59;;;15.53;81.56
45369;BME280;51342;55.250;37.668;2023-08-30T00:51:16;99454.44;;;15.53;81.52
45369;BME280;51342;55.250;37.668;2023-08-30T00:53:48;99452.66;;;15.52;81.89
45369;BME280;51342;55.250;37.668;2023-08-30T00:56:19;99456.09;;;15.51;81.64
45369;BME280;51342;55.250;37.668;2023-08-30T00:58:51;99463.94;;;15.51;81.79
45369;BME280;51342;55.250;37.668;2023-08-30T01:01:22;99474.34;;;15.51;81.60
45369;BME280;51342;55.250;37.668;2023-08-30T01:03:54;99473.53;;;15.52;81.67
45369;BME280;51342;55.250;37.668;2023-08-30T01:06:26;99467.41;;;15.51;81.42
45369;BME280;51342;55.250;37.668;2023-08-30T01:08:58;99470.88;;;15.50;81.53
45369;BME280;51342;55.250;37.668;2023-08-30T01:11:41;99475.06;;;15.47;81.36
45369;BME280;51342;55.250;37.668;2023-08-30T01:14:18;99465.59;;;15.49;81.54
45369;BME280;51342;55.250;37.668;2023-08-30T01:16:52;99468.22;;;15.49;81.57
45369;BME280;51342;55.250;37.668;2023-08-30T01:19:46;99469.03;;;15.48;81.40
45369;BME280;51342;55.250;37.668;2023-08-30T01:22:40;99471.44;;;15.42;81.65
45369;BME280;51342;55.250;37.668;2023-08-30T01:27:47;99475.06;;;15.47;81.72
45369;BME280;51342;55.250;37.668;2023-08-30T01:30:20;99477.69;;;15.47;81.76
45369;BME280;51342;55.250;37.668;2023-08-30T01:32:52;99478.56;;;15.47;81.71
45369;BME280;51342;55.250;37.668;2023-08-30T01:35:26;99474.25;;;15.48;81.61
45369;BME280;51342;55.250;37.668;2023-08-30T01:38:03;99470.69;;;15.46;81.45
45369;BME280;51342;55.250;37.668;2023-08-30T01:40:37;99478.56;;;15.47;81.81
45369;BME280;51342;55.250;37.668;2023-08-30T01:43:10;99471.59;;;15.46;81.89
45369;BME280;51342;55.250;37.668;2023-08-30T01:45:43;99475.06;;;15.47;81.79
45369;BME280;51342;55.250;37.668;2023-08-30T01:48:16;99467.25;;;15.47;81.65
45369;BME280;51342;55.250;37.668;2023-08-30T01:50:48;99469.03;;;15.48;81.63
45369;BME280;51342;55.250;37.668;2023-08-30T01:53:20;99461.16;;;15.46;82.03
45369;BME280;51342;55.250;37.668;2023-08-30T01:55:53;99454.94;;;15.43;82.04
45369;BME280;51342;55.250;37.668;2023-08-30T01:58:24;99463.72;;;15.45;81.96
45369;BME280;51342;55.250;37.668;2023-08-30T02:00:56;99466.31;;;15.45;81.85
45369;BME280;51342;55.250;37.668;2023-08-30T02:03:28;99461.88;;;15.42;81.86
45369;BME280;51342;55.250;37.668;2023-08-30T02:06:17;99463.50;;;15.38;81.82
45369;BME280;51342;55.250;37.668;2023-08-30T02:08:58;99467.06;;;15.41;82.06
45369;BME280;51342;55.250;37.668;2023-08-30T02:11:34;99475.72;;;15.40;81.90
45369;BME280;51342;55.250;37.668;2023-08-30T02:14:10;99478.31;;;15.40;81.90
45369;BME280;51342;55.250;37.668;2023-08-30T02:16:41;99480.09;;;15.41;82.06
45369;BME280;51342;55.250;37.668;2023-08-30T02:19:14;99480.09;;;15.41;81.86
45369;BME280;51342;55.250;37.668;2023-08-30T02:21:53;99477.44;;;15.39;82.15
45369;BME280;51342;55.250;37.668;2023-08-30T02:24:24;99473.09;;;15.40;82.04
45369;BME280;51342;55.250;37.668;2023-08-30T02:26:55;99480.94;;;15.40;81.81
45369;BME280;51342;55.250;37.668;2023-08-30T02:29:27;99484.38;;;15.38;81.60
45369;BME280;51342;55.250;37.668;2023-08-30T02:31:58;99490.44;;;15.37;81.86
45369;BME280;51342;55.250;37.668;2023-08-30T02:34:30;99492.13;;;15.37;81.95
45369;BME280;51342;55.250;37.668;2023-08-30T02:37:01;99498.16;;;15.36;82.08
45369;BME280;51342;55.250;37.668;2023-08-30T02:39:33;99496.44;;;15.36;82.23
45369;BME280;51342;55.250;37.668;2023-08-30T02:42:05;99494.69;;;15.35;82.43
45369;BME280;51342;55.250;37.668;2023-08-30T02:44:36;99501.66;;;15.36;82.26
45369;BME280;51342;55.250;37.668;2023-08-30T02:47:07;99499.94;;;15.37;82.49
45369;BME280;51342;55.250;37.668;2023-08-30T02:49:39;99492.91;;;15.34;82.29
45369;BME280;51342;55.250;37.668;2023-08-30T02:52:11;99499.88;;;15.35;81.95
45369;BME280;51342;55.250;37.668;2023-08-30T02:54:43;99499.06;;;15.36;82.20
45369;BME280;51342;55.250;37.668;2023-08-30T02:57:14;99499.88;;;15.35;82.30
45369;BME280;51342;55.250;37.668;2023-08-30T02:59:46;99502.50;;;15.35;81.86
45369;BME280;51342;55.250;37.668;2023-08-30T03:02:17;99492.06;;;15.35;81.93
45369;BME280;51342;55.250;37.668;2023-08-30T03:04:49;99490.31;;;15.34;82.31
45369;BME280;51342;55.250;37.668;2023-08-30T03:07:20;99490.31;;;15.34;82.01
45369;BME280;51342;55.250;37.668;2023-08-30T03:09:52;99484.25;;;15.35;82.18
45369;BME280;51342;55.250;37.668;2023-08-30T03:12:24;99480.81;;;15.36;82.02
45369;BME280;51342;55.250;37.668;2023-08-30T03:14:56;99480.72;;;15.33;82.14
45369;BME280;51342;55.250;37.668;2023-08-30T03:17:27;99482.59;;;15.37;82.12
45369;BME280;51342;55.250;37.668;2023-08-30T03:19:58;99485.22;;;15.37;81.91
45369;BME280;51342;55.250;37.668;2023-08-30T03:22:31;99489.50;;;15.37;81.93
45369;BME280;51342;55.250;37.668;2023-08-30T03:25:03;99495.69;;;15.39;81.83
45369;BME280;51342;55.250;37.668;2023-08-30T03:27:34;99488.75;;;15.40;82.07
45369;BME280;51342;55.250;37.668;2023-08-30T03:30:08;99493.13;;;15.41;81.94
45369;BME280;51342;55.250;37.668;2023-08-30T03:32:40;99498.34;;;15.41;81.80
45369;BME280;51342;55.250;37.668;2023-08-30T03:35:11;99496.59;;;15.41;81.75
45369;BME280;51342;55.250;37.668;2023-08-30T03:37:43;99500.09;;;15.42;81.87
45369;BME280;51342;55.250;37.668;2023-08-30T03:40:14;99505.31;;;15.42;81.63
45369;BME280;51342;55.250;37.668;2023-08-30T03:42:48;99498.38;;;15.42;81.87
45369;BME280;51342;55.250;37.668;2023-08-30T03:45:19;99503.59;;;15.42;81.53
45369;BME280;51342;55.250;37.668;2023-08-30T03:47:51;99494.88;;;15.42;81.40
45369;BME280;51342;55.250;37.668;2023-08-30T03:50:22;99494.03;;;15.43;81.47
45369;BME280;51342;55.250;37.668;2023-08-30T03:52:54;99501.06;;;15.44;81.63
45369;BME280;51342;55.250;37.668;2023-08-30T03:55:25;99494.03;;;15.43;81.43
45369;BME280;51342;55.250;37.668;2023-08-30T03:57:56;99488.91;;;15.44;81.45
45369;BME280;51342;55.250;37.668;2023-08-30T04:00:28;99486.22;;;15.43;81.67
45369;BME280;51342;55.250;37.668;2023-08-30T04:03:01;99487.22;;;15.46;81.28
45369;BME280;51342;55.250;37.668;2023-08-30T04:05:42;99490.63;;;15.44;81.35
45369;BME280;51342;55.250;37.668;2023-08-30T04:08:13;99488.94;;;15.46;81.33
45369;BME280;51342;55.250;37.668;2023-08-30T04:10:45;99489.13;;;15.50;81.65
45369;BME280;51342;55.250;37.668;2023-08-30T04:13:18;99497.91;;;15.54;81.68
45369;BME280;51342;55.250;37.668;2023-08-30T04:15:51;99496.22;;;15.54;81.76
45369;BME280;51342;55.250;37.668;2023-08-30T04:18:22;99495.41;;;15.57;81.73
45369;BME280;51342;55.250;37.668;2023-08-30T04:20:59;99497.19;;;15.58;81.58
45369;BME280;51342;55.250;37.668;2023-08-30T04:23:30;99507.75;;;15.61;81.44
45369;BME280;51342;55.250;37.668;2023-08-30T04:26:02;99512.19;;;15.63;81.07
45369;BME280;51342;55.250;37.668;2023-08-30T04:28:33;99519.25;;;15.66;80.72
45369;BME280;51342;55.250;37.668;2023-08-30T04:31:04;99510.59;;;15.67;81.02
45369;BME280;51342;55.250;37.668;2023-08-30T04:33:36;99503.69;;;15.69;80.79
45369;BME280;51342;55.250;37.668;2023-08-30T04:36:08;99495.97;;;15.72;80.80
45369;BME280;51342;55.250;37.668;2023-08-30T04:38:40;99489.09;;;15.74;80.59
45369;BME280;51342;55.250;37.668;2023-08-30T04:41:11;99485.63;;;15.75;80.30
45369;BME280;51342;55.250;37.668;2023-08-30T04:43:43;99493.63;;;15.80;80.58
45369;BME280;51342;55.250;37.668;2023-08-30T04:46:14;99491.81;;;15.77;79.67
45369;BME280;51342;55.250;37.668;2023-08-30T04:48:46;99494.41;;;15.77;79.71
45369;BME280;51342;55.250;37.668;2023-08-30T04:51:19;99498.84;;;15.80;79.48
45369;BME280;51342;55.250;37.668;2023-08-30T04:53:50;99508.47;;;15.82;79.02
45369;BME280;51342;55.250;37.668;2023-08-30T04:56:23;99508.63;;;15.87;79.37
45369;BME280;51342;55.250;37.668;2023-08-30T04:58:54;99505.28;;;15.91;79.14
45369;BME280;51342;55.250;37.668;2023-08-30T05:01:29;99504.56;;;15.95;78.90
45369;BME280;51342;55.250;37.668;2023-08-30T05:04:03;99507.34;;;16.00;78.77
45369;BME280;51342;55.250;37.668;2023-08-30T05:06:35;99512.63;;;16.03;78.59
45369;BME280;51342;55.250;37.668;2023-08-30T05:09:06;99511.91;;;16.07;78.67
45369;BME280;51342;55.250;37.668;2023-08-30T05:11:38;99509.38;;;16.10;78.06
45369;BME280;51342;55.250;37.668;2023-08-30T05:14:09;99512.06;;;16.11;78.10
45369;BME280;51342;55.250;37.668;2023-08-30T05:16:45;99516.63;;;16.19;78.28
45369;BME280;51342;55.250;37.668;2023-08-30T05:19:16;99515.09;;;16.25;78.53
45369;BME280;51342;55.250;37.668;2023-08-30T05:21:48;99512.72;;;16.33;78.78
45369;BME280;51342;55.250;37.668;2023-08-30T05:24:22;99502.38;;;16.36;78.27
45369;BME280;51342;55.250;37.668;2023-08-30T05:26:53;99508.63;;;16.41;78.21
45369;BME280;51342;55.250;37.668;2023-08-30T05:29:27;99510.59;;;16.48;78.36
45369;BME280;51342;55.250;37.668;2023-08-30T05:31:58;99504.63;;;16.52;77.79
45369;BME280;51342;55.250;37.668;2023-08-30T05:34:49;99493.28;;;16.52;77.52
45369;BME280;51342;55.250;37.668;2023-08-30T05:37:39;99497.66;;;16.53;77.18
45369;BME280;51342;55.250;37.668;2023-08-30T05:40:31;99494.31;;;16.57;76.87
45369;BME280;51342;55.250;37.668;2023-08-30T05:43:03;99488.31;;;16.61;76.67
45369;BME280;51342;55.250;37.668;2023-08-30T05:45:34;99487.59;;;16.65;76.69
45369;BME280;51342;55.250;37.668;2023-08-30T05:48:06;99486.94;;;16.72;76.21
45369;BME280;51342;55.250;37.668;2023-08-30T05:50:37;99485.47;;;16.80;76.42
45369;BME280;51342;55.250;37.668;2023-08-30T05:53:08;99490.91;;;16.88;75.55
45369;BME280;51342;55.250;37.668;2023-08-30T05:55:40;99485.88;;;16.95;75.59
45369;BME280;51342;55.250;37.668;2023-08-30T05:58:11;99473.81;;;17.01;74.98
45369;BME280;51342;55.250;37.668;2023-08-30T06:00:44;99479.22;;;17.07;74.79
45369;BME280;51342;55.250;37.668;2023-08-30T06:03:16;99488.19;;;17.15;75.39
45369;BME280;51342;55.250;37.668;2023-08-30T06:05:48;99496.22;;;17.22;75.49
45369;BME280;51342;55.250;37.668;2023-08-30T06:08:20;99486.75;;;17.26;75.46
45369;BME280;51342;55.250;37.668;2023-08-30T06:10:52;99497.38;;;17.32;75.37
45369;BME280;51342;55.250;37.668;2023-08-30T06:13:23;99493.06;;;17.34;75.45
45369;BME280;51342;55.250;37.668;2023-08-30T06:15:55;99499.31;;;17.41;75.49
45369;BME280;51342;55.250;37.668;2023-08-30T06:18:30;99497.69;;;17.44;75.00
45369;BME280;51342;55.250;37.668;2023-08-30T06:21:01;99494.31;;;17.48;74.60
45369;BME280;51342;55.250;37.668;2023-08-30T06:23:33;99498.69;;;17.49;75.00
45369;BME280;51342;55.250;37.668;2023-08-30T06:26:05;99496.97;;;17.50;74.53
45369;BME280;51342;55.250;37.668;2023-08-30T06:28:36;99499.50;;;17.47;73.76
45369;BME280;51342;55.250;37.668;2023-08-30T06:31:08;99502.06;;;17.45;73.78
45369;BME280;51342;55.250;37.668;2023-08-30T06:33:40;99508.16;;;17.44;74.03
45369;BME280;51342;55.250;37.668;2023-08-30T06:36:13;99502.81;;;17.41;73.81
45369;BME280;51342;55.250;37.668;2023-08-30T06:38:46;99499.28;;;17.39;74.06
45369;BME280;51342;55.250;37.668;2023-08-30T06:41:18;99505.41;;;17.40;73.69
45369;BME280;51342;55.250;37.668;2023-08-30T06:43:49;99515.00;;;17.39;73.89
45369;BME280;51342;55.250;37.668;2023-08-30T06:46:21;99503.59;;;17.36;74.20
45369;BME280;51342;55.250;37.668;2023-08-30T06:48:53;99518.34;;;17.35;74.12
45369;BME280;51342;55.250;37.668;2023-08-30T06:51:24;99527.06;;;17.34;73.92
45369;BME280;51342;55.250;37.668;2023-08-30T06:53:56;99526.88;;;17.28;72.90
45369;BME280;51342;55.250;37.668;2023-08-30T06:56:31;99511.16;;;17.27;73.19
45369;BME280;51342;55.250;37.668;2023-08-30T06:59:02;99507.50;;;17.20;72.22
45369;BME280;51342;55.250;37.668;2023-08-30T07:01:34;99513.56;;;17.19;72.74
45369;BME280;51342;55.250;37.668;2023-08-30T07:04:05;99508.28;;;17.17;72.25
45369;BME280;51342;55.250;37.668;2023-08-30T07:06:37;99510.19;;;17.23;72.08
45369;BME280;51342;55.250;37.668;2023-08-30T07:09:14;99509.28;;;17.22;72.32
45369;BME280;51342;55.250;37.668;2023-08-30T07:11:52;99512.00;;;17.26;71.60
45369;BME280;51342;55.250;37.668;2023-08-30T07:14:41;99499.84;;;17.28;71.38
45369;BME280;51342;55.250;37.668;2023-08-30T07:17:25;99502.59;;;17.32;71.99
45369;BME280;51342;55.250;37.668;2023-08-30T07:20:02;99504.63;;;17.42;72.65
45369;BME280;51342;55.250;37.668;2023-08-30T07:22:46;99491.72;;;17.48;71.86
45369;BME280;51342;55.250;37.668;2023-08-30T07:25:23;99497.00;;;17.52;71.16
45369;BME280;51342;55.250;37.668;2023-08-30T07:28:14;99504.13;;;17.57;71.56
45369;BME280;51342;55.250;37.668;2023-08-30T07:34:12;99501.81;;;17.69;70.46
45369;BME280;51342;55.250;37.668;2023-08-30T07:37:22;99511.88;;;17.86;70.12
45369;BME280;51342;55.250;37.668;2023-08-30T07:40:30;99515.59;;;17.95;69.51
45369;BME280;51342;55.250;37.668;2023-08-30T07:43:25;99529.72;;;18.02;69.37
45369;BME280;51342;55.250;37.668;2023-08-30T07:46:04;99526.25;;;18.03;68.16
45369;BME280;51342;55.250;37.668;2023-08-30T07:48:59;99525.47;;;18.06;68.53
45369;BME280;51342;55.250;37.668;2023-08-30T07:51:55;99523.91;;;18.14;67.54
45369;BME280;51342;55.250;37.668;2023-08-30T07:54:45;99518.06;;;18.25;67.40
45369;BME280;51342;55.250;37.668;2023-08-30T07:57:28;99522.81;;;18.42;68.25
45369;BME280;51342;55.250;37.668;2023-08-30T08:00:12;99516.97;;;18.53;66.76
45369;BME280;51342;55.250;37.668;2023-08-30T08:02:43;99516.31;;;18.62;67.21
45369;BME280;51342;55.250;37.668;2023-08-30T08:05:59;99508.88;;;18.80;66.69
45369;BME280;51342;55.250;37.668;2023-08-30T08:09:07;99506.75;;;19.05;65.69
45369;BME280;51342;55.250;37.668;2023-08-30T08:11:51;99502.69;;;19.19;63.49
45369;BME280;51342;55.250;37.668;2023-08-30T08:14:24;99506.38;;;19.30;62.01
45369;BME280;51342;55.250;37.668;2023-08-30T08:17:01;99513.81;;;19.53;61.96
45369;BME280;51342;55.250;37.668;2023-08-30T08:19:32;99514.63;;;19.50;62.93
45369;BME280;51342;55.250;37.668;2023-08-30T08:22:16;99513.19;;;19.65;62.72
45369;BME280;51342;55.250;37.668;2023-08-30T08:25:00;99515.81;;;19.65;60.50
45369;BME280;51342;55.250;37.668;2023-08-30T08:27:37;99519.16;;;19.57;59.46
45369;BME280;51342;55.250;37.668;2023-08-30T08:30:36;99522.34;;;19.41;60.25
45369;BME280;51342;55.250;37.668;2023-08-30T08:33:08;99513.50;;;19.38;59.34
45369;BME280;51342;55.250;37.668;2023-08-30T08:35:39;99515.16;;;19.32;60.38
45369;BME280;51342;55.250;37.668;2023-08-30T08:38:29;99520.28;;;19.26;60.21
45369;BME280;51342;55.250;37.668;2023-08-30T08:41:28;99523.78;;;19.27;60.37
45369;BME280;51342;55.250;37.668;2023-08-30T08:44:15;99519.47;;;19.29;60.89
45369;BME280;51342;55.250;37.668;2023-08-30T08:46:57;99528.25;;;19.31;61.72
45369;BME280;51342;55.250;37.668;2023-08-30T08:49:35;99524.72;;;19.29;61.47
45369;BME280;51342;55.250;37.668;2023-08-30T08:52:14;99515.88;;;19.24;60.94
45369;BME280;51342;55.250;37.668;2023-08-30T08:55:10;99524.50;;;19.18;61.35
45369;BME280;51342;55.250;37.668;2023-08-30T08:58:07;99528.94;;;19.22;61.70
45369;BME280;51342;55.250;37.668;2023-08-30T09:01:03;99541.16;;;19.20;60.95
45369;BME280;51342;55.250;37.668;2023-08-30T09:03:53;99555.16;;;19.21;61.14
45369;BME280;51342;55.250;37.668;2023-08-30T09:06:38;99557.91;;;19.27;62.05
45369;BME280;51342;55.250;37.668;2023-08-30T09:09:26;99570.22;;;19.31;62.81
45369;BME280;51342;55.250;37.668;2023-08-30T09:12:22;99562.41;;;19.34;62.22
45369;BME280;51342;55.250;37.668;2023-08-30T09:14:55;99572.94;;;19.36;61.02
45369;BME280;51342;55.250;37.668;2023-08-30T09:17:37;99570.47;;;19.43;62.34
45369;BME280;51342;55.250;37.668;2023-08-30T09:20:14;99570.94;;;19.66;60.20
45369;BME280;51342;55.250;37.668;2023-08-30T09:22:46;99575.78;;;19.92;61.48
45369;BME280;51342;55.250;37.668;2023-08-30T09:25:27;99571.63;;;20.04;61.58
45369;BME280;51342;55.250;37.668;2023-08-30T09:27:59;99571.84;;;20.17;59.43
45369;BME280;51342;55.250;37.668;2023-08-30T09:30:31;99566.78;;;20.29;58.39
45369;BME280;51342;55.250;37.668;2023-08-30T09:33:03;99559.19;;;20.46;59.90
45369;BME280;51342;55.250;37.668;2023-08-30T09:35:43;99562.00;;;20.56;57.89
45369;BME280;51342;55.250;37.668;2023-08-30T09:38:17;99561.97;;;20.55;57.04
45369;BME280;51342;55.250;37.668;2023-08-30T09:40:49;99575.72;;;20.40;56.74
45369;BME280;51342;55.250;37.668;2023-08-30T09:43:21;99568.59;;;20.31;56.44
45369;BME280;51342;55.250;37.668;2023-08-30T09:45:56;99582.41;;;20.20;56.86
45369;BME280;51342;55.250;37.668;2023-08-30T09:48:28;99580.66;;;20.20;58.66
45369;BME280;51342;55.250;37.668;2023-08-30T09:51:03;99572.72;;;20.19;58.26
45369;BME280;51342;55.250;37.668;2023-08-30T09:53:42;99571.81;;;20.15;58.20
45369;BME280;51342;55.250;37.668;2023-08-30T09:56:15;99587.66;;;20.20;57.95
45369;BME280;51342;55.250;37.668;2023-08-30T09:59:08;99581.44;;;20.15;58.41
45369;BME280;51342;55.250;37.668;2023-08-30T10:02:35;99580.50;;;20.12;58.52
45369;BME280;51342;55.250;37.668;2023-08-30T10:05:46;99576.13;;;20.13;58.23
45369;BME280;51342;55.250;37.668;2023-08-30T10:08:36;99570.09;;;20.19;57.46
45369;BME280;51342;55.250;37.668;2023-08-30T10:11:11;99568.50;;;20.25;56.53
45369;BME280;51342;55.250;37.668;2023-08-30T10:13:54;99564.06;;;20.24;57.27
45369;BME280;51342;55.250;37.668;2023-08-30T10:16:26;99561.69;;;20.38;56.72
45369;BME280;51342;55.250;37.668;2023-08-30T10:19:24;99566.06;;;20.39;57.35
45369;BME280;51342;55.250;37.668;2023-08-30T10:22:26;99573.09;;;20.42;57.62
45369;BME280;51342;55.250;37.668;2023-08-30T10:25:22;99572.19;;;20.36;57.05
45369;BME280;51342;55.250;37.668;2023-08-30T10:28:15;99572.28;;;20.44;58.07
45369;BME280;51342;55.250;37.668;2023-08-30T10:30:59;99576.81;;;20.51;57.93
45369;BME280;51342;55.250;37.668;2023-08-30T10:33:49;99580.41;;;20.58;58.73
45369;BME280;51342;55.250;37.668;2023-08-30T10:36:39;99565.47;;;20.55;56.55
45369;BME280;51342;55.250;37.668;2023-08-30T10:39:52;99567.16;;;20.49;57.22
45369;BME280;51342;55.250;37.668;2023-08-30T10:42:36;99562.84;;;20.55;55.93
45369;BME280;51342;55.250;37.668;2023-08-30T10:45:07;99562.25;;;20.73;56.46
45369;BME280;51342;55.250;37.668;2023-08-30T10:47:39;99558.00;;;20.84;57.52
45369;BME280;51342;55.250;37.668;2023-08-30T10:50:36;99561.59;;;20.89;57.50
45369;BME280;51342;55.250;37.668;2023-08-30T10:56:58;99565.03;;;20.84;56.19
45369;BME280;51342;55.250;37.668;2023-08-30T10:59:32;99554.66;;;20.98;54.48
45369;BME280;51342;55.250;37.668;2023-08-30T11:05:37;99543.41;;;21.09;55.86
45369;BME280;51342;55.250;37.668;2023-08-30T11:08:53;99559.28;;;21.14;54.71
45369;BME280;51342;55.250;37.668;2023-08-30T11:11:31;99567.81;;;20.96;53.90
45369;BME280;51342;55.250;37.668;2023-08-30T11:14:09;99572.75;;;20.75;54.24
45369;BME280;51342;55.250;37.668;2023-08-30T11:19:44;99549.97;;;20.74;55.22
45369;BME280;51342;55.250;37.668;2023-08-30T11:22:53;99557.06;;;20.81;55.29
45369;BME280;51342;55.250;37.668;2023-08-30T11:25:57;99553.63;;;20.83;53.90
45369;BME280;51342;55.250;37.668;2023-08-30T11:28:53;99562.28;;;20.76;53.96
45369;BME280;51342;55.250;37.668;2023-08-30T11:31:44;99566.69;;;20.77;54.19
45369;BME280;51342;55.250;37.668;2023-08-30T11:34:19;99551.88;;;20.85;54.33
45369;BME280;51342;55.250;37.668;2023-08-30T11:37:04;99547.56;;;20.90;54.45
45369;BME280;51342;55.250;37.668;2023-08-30T11:40:02;99560.00;;;21.01;54.21
45369;BME280;51342;55.250;37.668;2023-08-30T11:42:35;99560.00;;;21.02;54.26
45369;BME280;51342;55.250;37.668;2023-08-30T11:45:08;99558.25;;;21.04;54.46
45369;BME280;51342;55.250;37.668;2023-08-30T11:47:52;99561.69;;;20.97;54.51
45369;BME280;51342;55.250;37.668;2023-08-30T11:50:36;99561.69;;;20.99;54.59
45369;BME280;51342;55.250;37.668;2023-08-30T11:53:14;99559.94;;;20.98;54.15
45369;BME280;51342;55.250;37.668;2023-08-30T11:55:58;99554.59;;;20.93;54.69
45369;BME280;51342;55.250;37.668;2023-08-30T11:59:01;99560.72;;;20.89;54.09
45369;BME280;51342;55.250;37.668;2023-08-30T12:01:33;99558.09;;;20.90;54.50
45369;BME280;51342;55.250;37.668;2023-08-30T12:04:10;99566.53;;;20.68;55.16
45369;BME280;51342;55.250;37.668;2023-08-30T12:06:42;99570.28;;;20.85;55.38
45369;BME280;51342;55.250;37.668;2023-08-30T12:09:19;99568.63;;;20.92;55.53
45369;BME280;51342;55.250;37.668;2023-08-30T12:11:53;99573.06;;;20.96;53.74
45369;BME280;51342;55.250;37.668;2023-08-30T12:14:36;99561.63;;;20.92;54.13
45369;BME280;51342;55.250;37.668;2023-08-30T12:17:08;99558.16;;;20.94;54.19
45369;BME280;51342;55.250;37.668;2023-08-30T12:19:58;99572.94;;;20.87;54.33
45369;BME280;51342;55.250;37.668;2023-08-30T12:22:39;99555.31;;;20.80;53.69
45369;BME280;51342;55.250;37.668;2023-08-30T12:28:01;99555.28;;;20.77;53.89
45369;BME280;51342;55.250;37.668;2023-08-30T12:30:34;99549.09;;;20.73;53.29
45369;BME280;51342;55.250;37.668;2023-08-30T12:33:06;99550.75;;;20.68;53.83
45369;BME280;51342;55.250;37.668;2023-08-30T12:35:37;99550.69;;;20.62;54.20
45369;BME280;51342;55.250;37.668;2023-08-30T12:38:09;99547.09;;;20.55;54.61
45369;BME280;51342;55.250;37.668;2023-08-30T12:40:49;99544.47;;;20.55;55.76
45369;BME280;51342;55.250;37.668;2023-08-30T12:43:21;99539.19;;;20.55;54.34
45369;BME280;51342;55.250;37.668;2023-08-30T12:45:52;99538.25;;;20.52;54.42
45369;BME280;51342;55.250;37.668;2023-08-30T12:48:24;99538.16;;;20.46;53.79
45369;BME280;51342;55.250;37.668;2023-08-30T12:50:55;99539.84;;;20.42;54.57
45369;BME280;51342;55.250;37.668;2023-08-30T12:53:27;99538.94;;;20.42;54.32
45369;BME280;51342;55.250;37.668;2023-08-30T12:55:59;99531.91;;;20.39;54.61
45369;BME280;51342;55.250;37.668;2023-08-30T12:58:30;99534.56;;;20.41;54.66
45369;BME280;51342;55.250;37.668;2023-08-30T13:01:01;99537.16;;;20.39;55.30
45369;BME280;51342;55.250;37.668;2023-08-30T13:03:33;99541.53;;;20.37;55.60
45369;BME280;51342;55.250;37.668;2023-08-30T13:06:05;99537.91;;;20.30;54.46
45369;BME280;51342;55.250;37.668;2023-08-30T13:08:37;99531.63;;;20.21;54.20
45369;BME280;51342;55.250;37.668;2023-08-30T13:11:08;99527.19;;;20.18;54.32
45369;BME280;51342;55.250;37.668;2023-08-30T13:13:40;99514.03;;;20.15;55.73
45369;BME280;51342;55.250;37.668;2023-08-30T13:16:11;99514.91;;;20.16;55.41
45369;BME280;51342;55.250;37.668;2023-08-30T13:18:43;99510.56;;;20.18;55.79
45369;BME280;51342;55.250;37.668;2023-08-30T13:21:14;99499.19;;;20.19;55.64
45369;BME280;51342;55.250;37.668;2023-08-30T13:23:45;99498.28;;;20.15;55.05
45369;BME280;51342;55.250;37.668;2023-08-30T13:26:17;99500.84;;;20.13;54.92
45369;BME280;51342;55.250;37.668;2023-08-30T13:28:48;99485.06;;;20.12;55.47
45369;BME280;51342;55.250;37.668;2023-08-30T13:31:19;99482.44;;;20.10;55.35
45369;BME280;51342;55.250;37.668;2023-08-30T13:33:51;99480.69;;;20.09;55.11
45369;BME280;51342;55.250;37.668;2023-08-30T13:36:22;99477.16;;;20.09;54.76
45369;BME280;51342;55.250;37.668;2023-08-30T13:38:54;99479.75;;;20.07;54.58
45369;BME280;51342;55.250;37.668;2023-08-30T13:41:25;99472.72;;;20.05;54.92
45369;BME280;51342;55.250;37.668;2023-08-30T13:43:56;99465.63;;;19.98;53.55
45369;BME280;51342;55.250;37.668;2023-08-30T13:46:28;99467.31;;;19.96;53.77
45369;BME280;51342;55.250;37.668;2023-08-30T13:48:59;99472.56;;;19.96;53.95
45369;BME280;51342;55.250;37.668;2023-08-30T13:51:31;99462.00;;;19.91;53.33
45369;BME280;51342;55.250;37.668;2023-08-30T13:54:02;99465.44;;;19.89;53.84
45369;BME280;51342;55.250;37.668;2023-08-30T13:56:35;99446.13;;;19.85;53.39
45369;BME280;51342;55.250;37.668;2023-08-30T13:59:09;99446.13;;;19.85;54.09